createdAt,value
2023-07-23T00:01:07.415Z,4.00
2023-07-23T00:06:10.319Z,6.20
2023-07-23T00:11:13.404Z,5.22
2023-07-23T00:16:17.815Z,4.97
2023-07-23T00:21:20.861Z,7.03
2023-07-23T00:26:23.949Z,3.70
2023-07-23T00:31:28.468Z,7.88
2023-07-23T00:36:31.926Z,4.50
2023-07-23T00:41:35.349Z,4.95
2023-07-23T00:46:40.479Z,4.00
2023-07-23T00:51:43.761Z,5.25
2023-07-23T00:56:49.082Z,4.50
2023-07-23T01:01:53.457Z,5.93
2023-07-23T01:06:59.174Z,6.47
2023-07-23T01:12:04.239Z,4.30
2023-07-23T01:17:09.837Z,5.00
2023-07-23T01:22:14.295Z,3.97
2023-07-23T01:27:17.236Z,6.68
2023-07-23T01:32:20.260Z,4.97
2023-07-23T01:37:25.521Z,3.88
2023-07-23T01:42:29.172Z,4.03
2023-07-23T01:47:32.372Z,4.85
2023-07-23T01:52:36.813Z,3.47
2023-07-23T01:57:40.091Z,4.78
2023-07-23T02:02:43.353Z,8.23
2023-07-23T02:07:48.117Z,4.43
2023-07-23T02:12:51.323Z,4.72
2023-07-23T02:17:54.482Z,4.15
2023-07-23T02:22:59.211Z,4.70
2023-07-23T02:28:03.342Z,3.33
2023-07-23T02:33:06.599Z,3.17
2023-07-23T02:38:11.016Z,3.38
2023-07-23T02:43:14.280Z,4.90
2023-07-23T02:48:17.394Z,4.72
2023-07-23T02:53:22.322Z,3.90
2023-07-23T02:58:25.316Z,4.15
2023-07-23T03:03:28.405Z,3.88
2023-07-23T03:08:35.461Z,3.22
2023-07-23T03:13:38.544Z,4.85
2023-07-23T03:18:41.744Z,3.90
2023-07-23T03:23:46.620Z,4.35
2023-07-23T03:28:49.642Z,4.28
2023-07-23T03:33:52.596Z,3.85
2023-07-23T03:38:57.253Z,4.97
2023-07-23T03:44:00.413Z,5.35
2023-07-23T03:49:03.458Z,4.30
2023-07-23T03:54:07.819Z,4.18
2023-07-23T03:59:10.847Z,3.88
2023-07-23T04:04:13.964Z,3.58
2023-07-23T04:09:18.474Z,4.13
2023-07-23T04:14:21.888Z,3.65
2023-07-23T04:19:25.312Z,2.38
2023-07-23T04:24:29.875Z,3.47
2023-07-23T04:29:33.224Z,3.20
2023-07-23T04:34:36.471Z,4.47
2023-07-23T04:39:40.882Z,3.00
2023-07-23T04:44:44.301Z,5.13
2023-07-23T04:49:47.543Z,5.00
2023-07-23T04:54:52.054Z,4.00
2023-07-23T04:59:55.010Z,5.40
2023-07-23T05:04:58.072Z,3.53
2023-07-23T05:10:02.479Z,4.35
2023-07-23T05:15:13.736Z,5.25
2023-07-23T05:20:17.224Z,2.75
2023-07-23T05:25:21.785Z,4.88
2023-07-23T05:30:24.921Z,7.32
2023-07-23T05:35:28.012Z,3.47
2023-07-23T05:40:37.270Z,5.63
2023-07-23T05:45:40.707Z,6.28
2023-07-23T05:50:43.774Z,3.72
2023-07-23T05:55:48.253Z,3.15
2023-07-23T06:00:51.354Z,3.47
2023-07-23T06:05:54.534Z,5.00
2023-07-23T06:10:58.950Z,5.82
2023-07-23T06:16:02.031Z,4.15
2023-07-23T06:21:05.594Z,3.90
2023-07-23T06:26:12.112Z,10.23
2023-07-23T06:31:15.652Z,4.57
2023-07-23T06:36:18.737Z,3.40
2023-07-23T06:41:23.135Z,4.13
2023-07-23T06:46:26.345Z,3.08
2023-07-23T06:51:29.742Z,3.42
2023-07-23T06:56:35.186Z,3.42
2023-07-23T07:01:38.328Z,3.13
2023-07-23T07:06:41.467Z,5.50
2023-07-23T07:11:45.968Z,2.83
2023-07-23T07:16:49.099Z,2.65
2023-07-23T07:21:52.273Z,4.10
2023-07-23T07:26:56.911Z,5.30
2023-07-23T07:32:00.007Z,2.72
2023-07-23T07:37:03.488Z,3.35
2023-07-23T07:42:08.738Z,4.00
2023-07-23T07:47:12.020Z,3.33
2023-07-23T07:52:15.165Z,4.38
2023-07-23T07:57:20.395Z,3.60
2023-07-23T08:02:24.279Z,3.05
2023-07-23T08:07:27.881Z,2.78
2023-07-23T08:12:33.312Z,4.43
2023-07-23T08:17:37.443Z,2.42
2023-07-23T08:22:41.504Z,4.13
2023-07-23T08:27:52.184Z,3.15
2023-07-23T08:32:56.809Z,4.28
2023-07-23T08:38:00.740Z,3.85
2023-07-23T08:43:49.540Z,3.55
2023-07-23T08:49:06.742Z,3.00
2023-07-23T08:54:12.133Z,2.95
2023-07-23T08:59:16.828Z,3.53
2023-07-23T09:04:19.869Z,3.10
2023-07-23T09:09:23.274Z,3.22
2023-07-23T09:14:27.687Z,3.03
2023-07-23T09:19:30.891Z,4.55
2023-07-23T09:24:35.340Z,3.42
2023-07-23T09:29:42.938Z,2.58
2023-07-23T09:34:48.338Z,3.45
2023-07-23T09:39:56.095Z,3.20
2023-07-23T09:45:03.438Z,3.33
2023-07-23T09:50:07.919Z,4.00
2023-07-23T09:55:13.774Z,3.10
2023-07-23T10:00:18.964Z,2.30
2023-07-23T10:05:22.192Z,2.45
2023-07-23T10:10:25.237Z,2.08
2023-07-23T10:15:31.093Z,3.05
2023-07-23T10:20:34.892Z,2.85
2023-07-23T10:25:41.359Z,2.78
2023-07-23T10:30:46.781Z,3.97
2023-07-23T10:36:00.849Z,3.30
2023-07-23T10:41:04.865Z,2.75
2023-07-23T10:46:10.556Z,3.75
2023-07-23T10:51:15.962Z,3.30
2023-07-23T10:56:28.040Z,3.47
2023-07-23T11:01:36.982Z,3.28
2023-07-23T11:06:42.723Z,3.22
2023-07-23T11:11:45.859Z,3.72
2023-07-23T11:16:52.245Z,2.85
2023-07-23T11:21:57.618Z,3.65
2023-07-23T11:27:02.761Z,3.55
2023-07-23T11:32:08.868Z,3.28
2023-07-23T11:37:12.295Z,3.30
2023-07-23T11:42:19.005Z,3.70
2023-07-23T11:47:23.395Z,3.60
2023-07-23T11:52:27.012Z,3.50
2023-07-23T11:57:30.258Z,2.72
2023-07-23T12:02:36.500Z,4.22
2023-07-23T12:07:39.630Z,3.53
2023-07-23T12:12:45.595Z,6.00
2023-07-23T12:17:52.591Z,3.35
2023-07-23T12:22:57.845Z,3.38
2023-07-23T12:28:01.637Z,2.83
2023-07-23T12:33:06.322Z,3.20
2023-07-23T12:38:09.365Z,3.08
2023-07-23T12:43:12.776Z,3.67
2023-07-23T12:48:17.262Z,2.63
2023-07-23T12:53:20.434Z,2.35
2023-07-23T12:58:23.659Z,2.28
2023-07-23T13:03:28.255Z,2.13
2023-07-23T13:08:31.436Z,2.67
2023-07-23T13:13:34.453Z,4.80
2023-07-23T13:18:38.896Z,2.30
2023-07-23T13:23:42.233Z,2.15
2023-07-23T13:28:47.986Z,2.08
2023-07-23T13:33:52.681Z,2.40
2023-07-23T13:38:55.756Z,1.77
2023-07-23T13:44:01.443Z,2.42
2023-07-23T13:49:07.262Z,3.28
2023-07-23T13:54:11.373Z,1.83
2023-07-23T13:59:14.811Z,2.03
2023-07-23T14:04:19.517Z,2.00
2023-07-23T14:09:22.998Z,2.08
2023-07-23T14:14:26.095Z,3.30
2023-07-23T14:19:30.797Z,2.45
2023-07-23T14:24:34.028Z,2.25
2023-07-23T14:29:37.546Z,3.15
2023-07-23T14:34:43.156Z,2.10
2023-07-23T14:39:46.361Z,2.25
2023-07-23T14:44:49.628Z,2.05
2023-07-23T14:49:54.062Z,1.92
2023-07-23T14:54:57.313Z,1.80
2023-07-23T15:00:00.624Z,2.15
2023-07-23T15:05:06.143Z,3.72
2023-07-23T15:10:10.200Z,2.90
2023-07-23T15:15:14.930Z,1.70
2023-07-23T15:20:19.958Z,2.03
2023-07-23T15:25:24.517Z,2.65
2023-07-23T15:30:27.705Z,3.10
2023-07-23T15:35:32.273Z,4.72
2023-07-23T15:40:35.589Z,3.13
2023-07-23T15:45:39.752Z,2.30
2023-07-23T15:50:44.224Z,3.72
2023-07-23T15:55:47.298Z,3.15
2023-07-23T16:00:50.463Z,3.40
2023-07-23T16:05:54.987Z,2.53
2023-07-23T16:10:58.143Z,3.15
2023-07-23T16:16:01.552Z,1.52
2023-07-23T16:21:06.003Z,1.30
2023-07-23T16:26:10.078Z,2.72
2023-07-23T16:31:13.396Z,1.40
2023-07-23T16:36:19.567Z,1.80
2023-07-23T16:41:22.779Z,1.48
2023-07-23T16:46:25.988Z,1.70
2023-07-23T16:51:31.527Z,1.52
2023-07-23T16:56:34.880Z,1.50
2023-07-23T17:01:38.140Z,2.50
2023-07-23T17:06:43.957Z,1.40
2023-07-23T17:11:48.238Z,1.80
2023-07-23T17:16:51.406Z,1.63
2023-07-23T17:21:56.132Z,1.13
2023-07-23T17:26:59.290Z,1.38
2023-07-23T17:32:02.779Z,1.42
2023-07-23T17:37:08.033Z,2.10
2023-07-23T17:42:11.104Z,3.05
2023-07-23T17:47:14.184Z,1.65
2023-07-23T17:52:20.852Z,1.80
2023-07-23T17:57:24.674Z,1.75
2023-07-23T18:02:28.124Z,1.70
2023-07-23T18:07:32.572Z,2.05
2023-07-23T18:12:35.738Z,1.60
2023-07-23T18:17:38.800Z,3.85
2023-07-23T18:22:43.314Z,1.33
2023-07-23T18:27:46.497Z,1.48
2023-07-23T18:32:49.651Z,1.40
2023-07-23T18:37:54.759Z,1.67
2023-07-23T18:42:57.865Z,1.58
2023-07-23T18:48:00.987Z,1.50
2023-07-23T18:53:05.707Z,3.28
2023-07-23T18:58:09.789Z,1.70
2023-07-23T19:03:13.434Z,1.75
2023-07-23T19:08:18.269Z,2.03
2023-07-23T19:13:21.499Z,1.20
2023-07-23T19:18:24.923Z,1.00
2023-07-23T19:23:29.497Z,0.95
2023-07-23T19:28:32.682Z,1.20
2023-07-23T19:33:36.201Z,1.85
2023-07-23T19:38:40.834Z,1.17
2023-07-23T19:43:44.079Z,1.25
2023-07-23T19:48:47.136Z,1.92
2023-07-23T19:53:51.703Z,1.20
2023-07-23T19:58:54.939Z,1.92
2023-07-23T20:03:58.112Z,1.30
2023-07-23T20:09:06.918Z,1.77
2023-07-23T20:14:10.037Z,1.48
2023-07-23T20:19:13.252Z,4.53
2023-07-23T20:24:18.033Z,1.15
2023-07-23T20:29:22.801Z,1.35
2023-07-23T20:34:26.914Z,1.20
2023-07-23T20:39:32.343Z,1.40
2023-07-23T20:44:39.157Z,1.40
2023-07-23T20:49:44.112Z,1.48
2023-07-23T20:54:48.571Z,1.40
2023-07-23T20:59:51.821Z,1.25
2023-07-23T21:04:54.982Z,1.40
2023-07-23T21:09:59.378Z,1.30
2023-07-23T21:15:02.628Z,1.35
2023-07-23T21:20:06.385Z,1.42
2023-07-23T21:25:10.987Z,1.77
2023-07-23T21:30:14.220Z,1.45
2023-07-23T21:35:20.496Z,2.78
2023-07-23T21:40:25.133Z,3.55
2023-07-23T21:45:28.476Z,1.77
2023-07-23T21:50:31.611Z,1.70
2023-07-23T21:55:37.343Z,1.83
2023-07-23T22:00:40.848Z,1.52
2023-07-23T22:05:43.930Z,1.73
2023-07-23T22:10:48.453Z,1.60
2023-07-23T22:15:53.558Z,1.60
2023-07-23T22:20:56.573Z,1.33
2023-07-23T22:26:01.400Z,1.40
2023-07-23T22:31:04.426Z,1.42
2023-07-23T22:36:07.692Z,4.82
2023-07-23T22:41:12.488Z,1.20
2023-07-23T22:46:15.928Z,1.30
2023-07-23T22:51:19.110Z,1.85
2023-07-23T22:56:23.507Z,1.70
2023-07-23T23:01:26.856Z,1.55
2023-07-23T23:06:32.015Z,1.50
2023-07-23T23:11:37.263Z,1.65
2023-07-23T23:16:40.590Z,1.70
2023-07-23T23:21:43.682Z,1.77
2023-07-23T23:26:48.126Z,2.05
2023-07-23T23:31:51.288Z,2.10
2023-07-23T23:36:55.894Z,2.40
2023-07-23T23:42:00.443Z,1.67
2023-07-23T23:47:03.415Z,2.70
2023-07-23T23:52:09.183Z,1.58
2023-07-23T23:57:13.662Z,1.65
